sensor_id;sensor_type;location;lat;lon;timestamp;temperature;humidity
10294;DHT22;5192;50.328;7.610;2023-04-25T00:00:18;7.00;85.30
10294;DHT22;5192;50.328;7.610;2023-04-25T00:02:45;7.10;85.50
10294;DHT22;5192;50.328;7.610;2023-04-25T00:05:12;7.00;85.40
10294;DHT22;5192;50.328;7.610;2023-04-25T00:07:42;7.00;85.30
10294;DHT22;5192;50.328;7.610;2023-04-25T00:10:11;7.00;85.30
10294;DHT22;5192;50.328;7.610;2023-04-25T00:12:39;6.90;85.30
10294;DHT22;5192;50.328;7.610;2023-04-25T00:15:08;6.80;85.30
10294;DHT22;5192;50.328;7.610;2023-04-25T00:17:36;6.90;85.50
10294;DHT22;5192;50.328;7.610;2023-04-25T00:20:05;6.90;85.70
10294;DHT22;5192;50.328;7.610;2023-04-25T00:22:37;6.90;85.90
10294;DHT22;5192;50.328;7.610;2023-04-25T00:25:06;7.10;86.20
10294;DHT22;5192;50.328;7.610;2023-04-25T00:27:35;7.00;86.30
10294;DHT22;5192;50.328;7.610;2023-04-25T00:30:01;7.00;86.90
10294;DHT22;5192;50.328;7.610;2023-04-25T00:32:29;7.00;86.50
10294;DHT22;5192;50.328;7.610;2023-04-25T00:34:57;7.10;86.60
10294;DHT22;5192;50.328;7.610;2023-04-25T00:37:25;7.00;86.50
10294;DHT22;5192;50.328;7.610;2023-04-25T00:39:53;7.00;86.60
10294;DHT22;5192;50.328;7.610;2023-04-25T00:42:24;7.10;86.80
10294;DHT22;5192;50.328;7.610;2023-04-25T00:44:52;7.10;86.90
10294;DHT22;5192;50.328;7.610;2023-04-25T00:47:19;7.10;86.60
10294;DHT22;5192;50.328;7.610;2023-04-25T00:49:47;7.00;86.10
10294;DHT22;5192;50.328;7.610;2023-04-25T00:52:14;7.00;85.40
10294;DHT22;5192;50.328;7.610;2023-04-25T00:54:41;7.00;84.10
10294;DHT22;5192;50.328;7.610;2023-04-25T00:57:07;7.00;83.30
10294;DHT22;5192;50.328;7.610;2023-04-25T00:59:34;7.10;81.80
10294;DHT22;5192;50.328;7.610;2023-04-25T01:02:04;6.90;80.80
10294;DHT22;5192;50.328;7.610;2023-04-25T01:04:32;6.90;80.40
10294;DHT22;5192;50.328;7.610;2023-04-25T01:07:02;6.90;79.90
10294;DHT22;5192;50.328;7.610;2023-04-25T01:09:31;6.80;76.90
10294;DHT22;5192;50.328;7.610;2023-04-25T01:12:00;6.80;75.30
10294;DHT22;5192;50.328;7.610;2023-04-25T01:14:27;6.70;75.00
10294;DHT22;5192;50.328;7.610;2023-04-25T01:16:54;6.60;75.10
10294;DHT22;5192;50.328;7.610;2023-04-25T01:19:21;6.70;73.50
10294;DHT22;5192;50.328;7.610;2023-04-25T01:21:49;6.50;72.80
10294;DHT22;5192;50.328;7.610;2023-04-25T01:24:18;6.40;73.00
10294;DHT22;5192;50.328;7.610;2023-04-25T01:26:46;6.30;74.10
10294;DHT22;5192;50.328;7.610;2023-04-25T01:29:20;6.30;74.90
10294;DHT22;5192;50.328;7.610;2023-04-25T01:31:46;6.20;75.70
10294;DHT22;5192;50.328;7.610;2023-04-25T01:34:13;6.00;76.90
10294;DHT22;5192;50.328;7.610;2023-04-25T01:36:40;6.00;77.40
10294;DHT22;5192;50.328;7.610;2023-04-25T01:39:07;6.00;77.70
10294;DHT22;5192;50.328;7.610;2023-04-25T01:41:34;5.90;78.00
10294;DHT22;5192;50.328;7.610;2023-04-25T01:44:00;5.80;77.70
10294;DHT22;5192;50.328;7.610;2023-04-25T01:46:29;5.80;78.40
10294;DHT22;5192;50.328;7.610;2023-04-25T01:48:57;5.60;78.80
10294;DHT22;5192;50.328;7.610;2023-04-25T01:51:25;5.60;79.20
10294;DHT22;5192;50.328;7.610;2023-04-25T01:53:55;5.50;79.40
10294;DHT22;5192;50.328;7.610;2023-04-25T01:56:23;5.50;79.40
10294;DHT22;5192;50.328;7.610;2023-04-25T01:58:51;5.40;79.50
10294;DHT22;5192;50.328;7.610;2023-04-25T02:01:19;5.40;79.50
10294;DHT22;5192;50.328;7.610;2023-04-25T02:03:45;5.30;79.90
10294;DHT22;5192;50.328;7.610;2023-04-25T02:06:12;5.30;80.10
10294;DHT22;5192;50.328;7.610;2023-04-25T02:08:38;5.30;80.20
10294;DHT22;5192;50.328;7.610;2023-04-25T02:11:05;5.20;80.20
10294;DHT22;5192;50.328;7.610;2023-04-25T02:13:32;5.20;80.40
10294;DHT22;5192;50.328;7.610;2023-04-25T02:16:00;5.20;80.60
10294;DHT22;5192;50.328;7.610;2023-04-25T02:18:27;5.10;80.80
10294;DHT22;5192;50.328;7.610;2023-04-25T02:20:54;5.10;81.10
10294;DHT22;5192;50.328;7.610;2023-04-25T02:23:21;5.10;81.10
10294;DHT22;5192;50.328;7.610;2023-04-25T02:25:48;5.10;81.40
10294;DHT22;5192;50.328;7.610;2023-04-25T02:28:16;5.10;81.40
10294;DHT22;5192;50.328;7.610;2023-04-25T02:30:42;5.10;81.50
10294;DHT22;5192;50.328;7.610;2023-04-25T02:33:09;5.10;81.70
10294;DHT22;5192;50.328;7.610;2023-04-25T02:35:36;5.10;81.80
10294;DHT22;5192;50.328;7.610;2023-04-25T02:38:02;5.10;81.90
10294;DHT22;5192;50.328;7.610;2023-04-25T02:40:29;5.10;81.90
10294;DHT22;5192;50.328;7.610;2023-04-25T02:42:58;5.10;82.00
10294;DHT22;5192;50.328;7.610;2023-04-25T02:45:25;5.20;82.10
10294;DHT22;5192;50.328;7.610;2023-04-25T02:47:52;5.20;82.10
10294;DHT22;5192;50.328;7.610;2023-04-25T02:50:18;5.20;82.10
10294;DHT22;5192;50.328;7.610;2023-04-25T02:52:48;5.10;82.00
10294;DHT22;5192;50.328;7.610;2023-04-25T02:55:15;5.10;82.00
10294;DHT22;5192;50.328;7.610;2023-04-25T02:57:42;5.10;81.90
10294;DHT22;5192;50.328;7.610;2023-04-25T03:00:08;5.10;82.00
10294;DHT22;5192;50.328;7.610;2023-04-25T03:02:36;5.10;82.10
10294;DHT22;5192;50.328;7.610;2023-04-25T03:05:07;5.20;82.00
10294;DHT22;5192;50.328;7.610;2023-04-25T03:07:38;5.20;82.00
10294;DHT22;5192;50.328;7.610;2023-04-25T03:10:06;5.10;81.90
10294;DHT22;5192;50.328;7.610;2023-04-25T03:12:32;5.10;82.00
10294;DHT22;5192;50.328;7.610;2023-04-25T03:14:58;5.10;82.10
10294;DHT22;5192;50.328;7.610;2023-04-25T03:17:26;5.20;82.20
10294;DHT22;5192;50.328;7.610;2023-04-25T03:19:53;5.20;82.30
10294;DHT22;5192;50.328;7.610;2023-04-25T03:22:19;5.20;82.40
10294;DHT22;5192;50.328;7.610;2023-04-25T03:24:47;5.20;82.40
10294;DHT22;5192;50.328;7.610;2023-04-25T03:27:15;5.30;82.60
10294;DHT22;5192;50.328;7.610;2023-04-25T03:29:43;5.30;82.60
10294;DHT22;5192;50.328;7.610;2023-04-25T03:32:11;5.40;82.60
10294;DHT22;5192;50.328;7.610;2023-04-25T03:34:39;5.30;82.70
10294;DHT22;5192;50.328;7.610;2023-04-25T03:37:07;5.30;82.70
10294;DHT22;5192;50.328;7.610;2023-04-25T03:39:34;5.30;82.70
10294;DHT22;5192;50.328;7.610;2023-04-25T03:42:02;5.30;82.60
10294;DHT22;5192;50.328;7.610;2023-04-25T03:44:30;5.30;82.60
10294;DHT22;5192;50.328;7.610;2023-04-25T03:46:57;5.30;82.70
10294;DHT22;5192;50.328;7.610;2023-04-25T03:49:28;5.30;82.40
10294;DHT22;5192;50.328;7.610;2023-04-25T03:51:55;5.30;82.00
10294;DHT22;5192;50.328;7.610;2023-04-25T03:54:22;5.40;81.60
10294;DHT22;5192;50.328;7.610;2023-04-25T03:56:48;5.30;80.80
10294;DHT22;5192;50.328;7.610;2023-04-25T03:59:18;5.50;80.10
10294;DHT22;5192;50.328;7.610;2023-04-25T04:01:46;5.30;79.00
10294;DHT22;5192;50.328;7.610;2023-04-25T04:04:14;5.30;77.90
10294;DHT22;5192;50.328;7.610;2023-04-25T04:06:39;5.30;77.30
10294;DHT22;5192;50.328;7.610;2023-04-25T04:09:07;5.30;77.10
10294;DHT22;5192;50.328;7.610;2023-04-25T04:11:37;5.30;77.30
10294;DHT22;5192;50.328;7.610;2023-04-25T04:14:05;5.30;76.90
10294;DHT22;5192;50.328;7.610;2023-04-25T04:16:33;5.30;75.30
10294;DHT22;5192;50.328;7.610;2023-04-25T04:18:59;5.30;72.90
10294;DHT22;5192;50.328;7.610;2023-04-25T04:21:28;5.40;71.80
10294;DHT22;5192;50.328;7.610;2023-04-25T04:23:55;5.40;70.10
10294;DHT22;5192;50.328;7.610;2023-04-25T04:26:25;5.50;69.10
10294;DHT22;5192;50.328;7.610;2023-04-25T04:28:53;5.50;68.30
10294;DHT22;5192;50.328;7.610;2023-04-25T04:31:21;5.50;67.30
10294;DHT22;5192;50.328;7.610;2023-04-25T04:33:47;5.50;66.90
10294;DHT22;5192;50.328;7.610;2023-04-25T04:36:16;5.70;66.70
10294;DHT22;5192;50.328;7.610;2023-04-25T04:38:48;5.60;67.60
10294;DHT22;5192;50.328;7.610;2023-04-25T04:41:14;5.60;67.80
10294;DHT22;5192;50.328;7.610;2023-04-25T04:43:41;5.60;67.50
10294;DHT22;5192;50.328;7.610;2023-04-25T04:46:08;5.70;67.10
10294;DHT22;5192;50.328;7.610;2023-04-25T04:48:38;5.70;64.80
10294;DHT22;5192;50.328;7.610;2023-04-25T04:51:07;5.70;64.90
10294;DHT22;5192;50.328;7.610;2023-04-25T04:53:34;5.70;64.60
10294;DHT22;5192;50.328;7.610;2023-04-25T04:56:00;5.80;64.20
10294;DHT22;5192;50.328;7.610;2023-04-25T04:58:27;5.80;64.00
10294;DHT22;5192;50.328;7.610;2023-04-25T05:00:57;5.80;64.80
10294;DHT22;5192;50.328;7.610;2023-04-25T05:03:23;5.80;62.30
10294;DHT22;5192;50.328;7.610;2023-04-25T05:05:50;5.80;63.00
10294;DHT22;5192;50.328;7.610;2023-04-25T05:08:18;5.80;64.20
10294;DHT22;5192;50.328;7.610;2023-04-25T05:10:45;5.80;65.30
10294;DHT22;5192;50.328;7.610;2023-04-25T05:13:12;5.80;66.00
10294;DHT22;5192;50.328;7.610;2023-04-25T05:15:38;6.10;66.50
10294;DHT22;5192;50.328;7.610;2023-04-25T05:18:04;5.90;65.10
10294;DHT22;5192;50.328;7.610;2023-04-25T05:20:30;6.00;63.00
10294;DHT22;5192;50.328;7.610;2023-04-25T05:22:58;5.90;61.50
10294;DHT22;5192;50.328;7.610;2023-04-25T05:25:26;5.90;61.50
10294;DHT22;5192;50.328;7.610;2023-04-25T05:27:54;5.80;60.40
10294;DHT22;5192;50.328;7.610;2023-04-25T05:30:23;5.80;60.30
10294;DHT22;5192;50.328;7.610;2023-04-25T05:32:50;5.80;59.20
10294;DHT22;5192;50.328;7.610;2023-04-25T05:35:17;5.90;59.50
10294;DHT22;5192;50.328;7.610;2023-04-25T05:37:44;5.80;60.20
10294;DHT22;5192;50.328;7.610;2023-04-25T05:40:12;5.90;59.20
10294;DHT22;5192;50.328;7.610;2023-04-25T05:42:39;5.90;59.60
10294;DHT22;5192;50.328;7.610;2023-04-25T05:45:06;5.90;56.60
10294;DHT22;5192;50.328;7.610;2023-04-25T05:47:33;5.90;56.20
10294;DHT22;5192;50.328;7.610;2023-04-25T05:50:00;6.00;55.00
10294;DHT22;5192;50.328;7.610;2023-04-25T05:52:27;6.00;54.00
10294;DHT22;5192;50.328;7.610;2023-04-25T05:54:54;6.10;53.50
10294;DHT22;5192;50.328;7.610;2023-04-25T05:57:26;6.10;54.20
10294;DHT22;5192;50.328;7.610;2023-04-25T05:59:53;6.30;51.50
10294;DHT22;5192;50.328;7.610;2023-04-25T06:02:20;6.30;50.70
10294;DHT22;5192;50.328;7.610;2023-04-25T06:04:48;6.20;50.30
10294;DHT22;5192;50.328;7.610;2023-04-25T06:07:16;6.20;48.60
10294;DHT22;5192;50.328;7.610;2023-04-25T06:09:43;6.20;48.40
10294;DHT22;5192;50.328;7.610;2023-04-25T06:12:10;6.40;49.10
10294;DHT22;5192;50.328;7.610;2023-04-25T06:14:38;6.30;48.80
10294;DHT22;5192;50.328;7.610;2023-04-25T06:17:06;6.20;45.00
10294;DHT22;5192;50.328;7.610;2023-04-25T06:19:34;6.20;43.50
10294;DHT22;5192;50.328;7.610;2023-04-25T06:22:01;6.40;44.40
10294;DHT22;5192;50.328;7.610;2023-04-25T06:24:28;6.30;44.40
10294;DHT22;5192;50.328;7.610;2023-04-25T06:26:55;6.20;43.20
10294;DHT22;5192;50.328;7.610;2023-04-25T06:29:21;6.30;47.80
10294;DHT22;5192;50.328;7.610;2023-04-25T06:31:48;6.30;43.50
10294;DHT22;5192;50.328;7.610;2023-04-25T06:34:15;6.30;41.80
10294;DHT22;5192;50.328;7.610;2023-04-25T06:36:42;6.40;45.50
10294;DHT22;5192;50.328;7.610;2023-04-25T06:39:12;6.40;44.10
10294;DHT22;5192;50.328;7.610;2023-04-25T06:41:39;6.50;44.90
10294;DHT22;5192;50.328;7.610;2023-04-25T06:44:07;6.60;43.60
10294;DHT22;5192;50.328;7.610;2023-04-25T06:46:34;6.60;41.00
10294;DHT22;5192;50.328;7.610;2023-04-25T06:49:04;6.50;39.80
10294;DHT22;5192;50.328;7.610;2023-04-25T06:51:30;6.60;39.60
10294;DHT22;5192;50.328;7.610;2023-04-25T06:53:57;6.60;40.20
10294;DHT22;5192;50.328;7.610;2023-04-25T06:56:24;6.80;40.50
10294;DHT22;5192;50.328;7.610;2023-04-25T06:58:51;6.70;39.80
10294;DHT22;5192;50.328;7.610;2023-04-25T07:01:17;6.80;40.40
10294;DHT22;5192;50.328;7.610;2023-04-25T07:03:44;6.80;40.60
10294;DHT22;5192;50.328;7.610;2023-04-25T07:06:10;6.90;34.50
10294;DHT22;5192;50.328;7.610;2023-04-25T07:08:38;7.00;33.50
10294;DHT22;5192;50.328;7.610;2023-04-25T07:11:05;7.00;35.30
10294;DHT22;5192;50.328;7.610;2023-04-25T07:13:33;7.10;36.80
10294;DHT22;5192;50.328;7.610;2023-04-25T07:16:00;7.20;35.30
10294;DHT22;5192;50.328;7.610;2023-04-25T07:18:27;7.20;33.40
10294;DHT22;5192;50.328;7.610;2023-04-25T07:20:54;7.30;31.60
10294;DHT22;5192;50.328;7.610;2023-04-25T07:23:21;7.20;31.00
10294;DHT22;5192;50.328;7.610;2023-04-25T07:25:48;7.10;32.00
10294;DHT22;5192;50.328;7.610;2023-04-25T07:28:16;7.20;36.10
10294;DHT22;5192;50.328;7.610;2023-04-25T07:30:42;7.10;38.40
10294;DHT22;5192;50.328;7.610;2023-04-25T07:33:10;7.10;41.00
10294;DHT22;5192;50.328;7.610;2023-04-25T07:35:37;6.90;37.30
10294;DHT22;5192;50.328;7.610;2023-04-25T07:38:03;6.80;37.60
10294;DHT22;5192;50.328;7.610;2023-04-25T07:40:30;6.80;37.00
10294;DHT22;5192;50.328;7.610;2023-04-25T07:42:58;6.70;37.80
10294;DHT22;5192;50.328;7.610;2023-04-25T07:45:34;6.70;38.30
10294;DHT22;5192;50.328;7.610;2023-04-25T07:48:01;6.60;34.90
10294;DHT22;5192;50.328;7.610;2023-04-25T07:50:26;6.70;36.60
10294;DHT22;5192;50.328;7.610;2023-04-25T07:52:55;6.80;35.60
10294;DHT22;5192;50.328;7.610;2023-04-25T07:55:21;7.00;36.60
10294;DHT22;5192;50.328;7.610;2023-04-25T07:57:47;7.10;31.60
10294;DHT22;5192;50.328;7.610;2023-04-25T08:00:13;7.30;32.00
10294;DHT22;5192;50.328;7.610;2023-04-25T08:02:40;7.40;28.60
10294;DHT22;5192;50.328;7.610;2023-04-25T08:05:06;7.40;29.40
10294;DHT22;5192;50.328;7.610;2023-04-25T08:07:37;7.50;30.70
10294;DHT22;5192;50.328;7.610;2023-04-25T08:10:05;7.50;30.00
10294;DHT22;5192;50.328;7.610;2023-04-25T08:12:33;7.50;30.30
10294;DHT22;5192;50.328;7.610;2023-04-25T08:15:00;7.50;33.20
10294;DHT22;5192;50.328;7.610;2023-04-25T08:17:31;7.50;33.00
10294;DHT22;5192;50.328;7.610;2023-04-25T08:19:58;7.50;29.10
10294;DHT22;5192;50.328;7.610;2023-04-25T08:22:25;7.70;31.50
10294;DHT22;5192;50.328;7.610;2023-04-25T08:24:52;7.80;32.40
10294;DHT22;5192;50.328;7.610;2023-04-25T08:27:22;7.80;30.00
10294;DHT22;5192;50.328;7.610;2023-04-25T08:29:49;7.90;29.00
10294;DHT22;5192;50.328;7.610;2023-04-25T08:32:18;7.90;25.90
10294;DHT22;5192;50.328;7.610;2023-04-25T08:34:44;8.10;23.20
10294;DHT22;5192;50.328;7.610;2023-04-25T08:37:10;8.10;19.10
10294;DHT22;5192;50.328;7.610;2023-04-25T08:39:37;8.10;15.20
10294;DHT22;5192;50.328;7.610;2023-04-25T08:42:06;8.20;18.80
10294;DHT22;5192;50.328;7.610;2023-04-25T08:44:34;8.40;13.40
10294;DHT22;5192;50.328;7.610;2023-04-25T08:47:03;8.50;13.50
10294;DHT22;5192;50.328;7.610;2023-04-25T08:49:32;8.60;9.20
10294;DHT22;5192;50.328;7.610;2023-04-25T08:52:04;8.70;6.50
10294;DHT22;5192;50.328;7.610;2023-04-25T08:54:35;8.70;5.70
10294;DHT22;5192;50.328;7.610;2023-04-25T08:57:03;8.80;8.50
10294;DHT22;5192;50.328;7.610;2023-04-25T08:59:31;8.90;6.80
10294;DHT22;5192;50.328;7.610;2023-04-25T09:01:57;9.10;1.00
10294;DHT22;5192;50.328;7.610;2023-04-25T09:04:24;8.80;1.00
10294;DHT22;5192;50.328;7.610;2023-04-25T09:06:52;8.80;1.00
10294;DHT22;5192;50.328;7.610;2023-04-25T09:09:20;8.70;1.00
10294;DHT22;5192;50.328;7.610;2023-04-25T09:11:46;8.50;1.00
10294;DHT22;5192;50.328;7.610;2023-04-25T09:14:31;8.50;1.00
10294;DHT22;5192;50.328;7.610;2023-04-25T09:17:15;8.50;1.00
10294;DHT22;5192;50.328;7.610;2023-04-25T09:19:44;8.50;1.00
10294;DHT22;5192;50.328;7.610;2023-04-25T09:22:12;8.50;1.00
10294;DHT22;5192;50.328;7.610;2023-04-25T09:24:57;8.50;1.70
10294;DHT22;5192;50.328;7.610;2023-04-25T09:27:24;8.60;1.00
10294;DHT22;5192;50.328;7.610;2023-04-25T09:30:00;8.60;4.50
10294;DHT22;5192;50.328;7.610;2023-04-25T09:32:27;8.60;4.00
10294;DHT22;5192;50.328;7.610;2023-04-25T09:34:56;8.50;1.00
10294;DHT22;5192;50.328;7.610;2023-04-25T09:37:34;8.50;1.00
10294;DHT22;5192;50.328;7.610;2023-04-25T09:40:05;8.40;1.00
10294;DHT22;5192;50.328;7.610;2023-04-25T09:42:34;8.30;1.00
10294;DHT22;5192;50.328;7.610;2023-04-25T09:45:03;8.30;1.00
10294;DHT22;5192;50.328;7.610;2023-04-25T09:47:30;8.10;1.00
10294;DHT22;5192;50.328;7.610;2023-04-25T09:49:57;8.10;1.00
10294;DHT22;5192;50.328;7.610;2023-04-25T09:52:24;8.00;1.00
10294;DHT22;5192;50.328;7.610;2023-04-25T09:54:53;7.90;1.00
10294;DHT22;5192;50.328;7.610;2023-04-25T09:57:22;7.90;1.00
10294;DHT22;5192;50.328;7.610;2023-04-25T09:59:54;7.90;1.00
10294;DHT22;5192;50.328;7.610;2023-04-25T10:02:26;7.90;1.00
10294;DHT22;5192;50.328;7.610;2023-04-25T10:04:57;8.00;1.00
10294;DHT22;5192;50.328;7.610;2023-04-25T10:07:28;8.10;1.00
10294;DHT22;5192;50.328;7.610;2023-04-25T10:10:05;8.30;1.00
10294;DHT22;5192;50.328;7.610;2023-04-25T10:12:34;8.40;1.00
10294;DHT22;5192;50.328;7.610;2023-04-25T10:15:07;8.60;1.00
10294;DHT22;5192;50.328;7.610;2023-04-25T10:17:36;8.90;1.00
10294;DHT22;5192;50.328;7.610;2023-04-25T10:20:03;9.10;1.00
10294;DHT22;5192;50.328;7.610;2023-04-25T10:22:44;9.10;1.00
10294;DHT22;5192;50.328;7.610;2023-04-25T10:25:18;9.10;1.00
10294;DHT22;5192;50.328;7.610;2023-04-25T10:27:45;9.20;1.00
10294;DHT22;5192;50.328;7.610;2023-04-25T10:30:22;9.40;1.00
10294;DHT22;5192;50.328;7.610;2023-04-25T10:32:49;9.40;1.00
10294;DHT22;5192;50.328;7.610;2023-04-25T10:35:29;9.50;1.00
10294;DHT22;5192;50.328;7.610;2023-04-25T10:38:19;9.20;1.00
10294;DHT22;5192;50.328;7.610;2023-04-25T10:41:09;9.30;1.00
10294;DHT22;5192;50.328;7.610;2023-04-25T10:43:49;9.40;1.00
10294;DHT22;5192;50.328;7.610;2023-04-25T10:46:35;9.80;1.00
10294;DHT22;5192;50.328;7.610;2023-04-25T10:49:02;10.10;1.00
10294;DHT22;5192;50.328;7.610;2023-04-25T10:51:34;10.40;1.00
10294;DHT22;5192;50.328;7.610;2023-04-25T10:54:08;10.70;1.00
10294;DHT22;5192;50.328;7.610;2023-04-25T10:56:39;11.00;1.00
10294;DHT22;5192;50.328;7.610;2023-04-25T10:59:15;10.80;1.00
10294;DHT22;5192;50.328;7.610;2023-04-25T11:02:01;10.70;1.00
10294;DHT22;5192;50.328;7.610;2023-04-25T11:04:37;10.70;1.00
10294;DHT22;5192;50.328;7.610;2023-04-25T11:07:25;10.50;1.00
10294;DHT22;5192;50.328;7.610;2023-04-25T11:09:55;10.20;1.00
10294;DHT22;5192;50.328;7.610;2023-04-25T11:12:21;9.90;1.00
10294;DHT22;5192;50.328;7.610;2023-04-25T11:14:49;9.60;1.00
10294;DHT22;5192;50.328;7.610;2023-04-25T11:17:17;9.50;1.00
10294;DHT22;5192;50.328;7.610;2023-04-25T11:19:44;9.50;1.00
10294;DHT22;5192;50.328;7.610;2023-04-25T11:22:13;9.40;1.00
10294;DHT22;5192;50.328;7.610;2023-04-25T11:24:39;9.40;1.00
10294;DHT22;5192;50.328;7.610;2023-04-25T11:27:06;9.40;1.00
10294;DHT22;5192;50.328;7.610;2023-04-25T11:29:33;9.40;1.00
10294;DHT22;5192;50.328;7.610;2023-04-25T11:32:02;9.50;1.00
10294;DHT22;5192;50.328;7.610;2023-04-25T11:34:33;9.70;1.00
10294;DHT22;5192;50.328;7.610;2023-04-25T11:37:04;10.00;1.00
10294;DHT22;5192;50.328;7.610;2023-04-25T11:39:32;9.90;1.00
10294;DHT22;5192;50.328;7.610;2023-04-25T11:41:59;9.90;1.00
10294;DHT22;5192;50.328;7.610;2023-04-25T11:44:29;9.90;1.00
10294;DHT22;5192;50.328;7.610;2023-04-25T11:46:59;10.40;1.00
10294;DHT22;5192;50.328;7.610;2023-04-25T11:49:30;10.90;1.00
10294;DHT22;5192;50.328;7.610;2023-04-25T11:51:58;11.00;1.00
10294;DHT22;5192;50.328;7.610;2023-04-25T11:54:26;11.20;1.00
10294;DHT22;5192;50.328;7.610;2023-04-25T11:56:52;11.20;1.00
10294;DHT22;5192;50.328;7.610;2023-04-25T11:59:23;11.30;1.00
10294;DHT22;5192;50.328;7.610;2023-04-25T12:01:50;11.20;1.00
10294;DHT22;5192;50.328;7.610;2023-04-25T12:04:42;11.30;1.00
10294;DHT22;5192;50.328;7.610;2023-04-25T12:07:12;11.20;1.00
10294;DHT22;5192;50.328;7.610;2023-04-25T12:09:40;11.40;1.00
10294;DHT22;5192;50.328;7.610;2023-04-25T12:12:10;11.40;1.00
10294;DHT22;5192;50.328;7.610;2023-04-25T12:14:37;11.60;1.00
10294;DHT22;5192;50.328;7.610;2023-04-25T12:17:04;11.40;1.00
10294;DHT22;5192;50.328;7.610;2023-04-25T12:19:37;11.00;1.00
10294;DHT22;5192;50.328;7.610;2023-04-25T12:22:22;11.20;1.00
10294;DHT22;5192;50.328;7.610;2023-04-25T12:24:48;11.70;1.00
10294;DHT22;5192;50.328;7.610;2023-04-25T12:27:20;12.10;1.00
10294;DHT22;5192;50.328;7.610;2023-04-25T12:29:55;12.30;1.00
10294;DHT22;5192;50.328;7.610;2023-04-25T12:32:23;11.90;1.00
10294;DHT22;5192;50.328;7.610;2023-04-25T12:34:50;11.70;1.00
10294;DHT22;5192;50.328;7.610;2023-04-25T12:37:17;11.40;1.00
10294;DHT22;5192;50.328;7.610;2023-04-25T12:39:45;10.90;1.00
10294;DHT22;5192;50.328;7.610;2023-04-25T12:42:11;10.80;1.00
10294;DHT22;5192;50.328;7.610;2023-04-25T12:44:39;10.70;1.00
10294;DHT22;5192;50.328;7.610;2023-04-25T12:47:07;10.80;1.00
10294;DHT22;5192;50.328;7.610;2023-04-25T12:49:35;10.80;1.00
10294;DHT22;5192;50.328;7.610;2023-04-25T12:52:00;10.90;1.00
10294;DHT22;5192;50.328;7.610;2023-04-25T12:54:27;11.10;1.00
10294;DHT22;5192;50.328;7.610;2023-04-25T12:56:54;11.30;1.00
10294;DHT22;5192;50.328;7.610;2023-04-25T12:59:21;11.50;1.00
10294;DHT22;5192;50.328;7.610;2023-04-25T13:01:48;11.80;1.00
10294;DHT22;5192;50.328;7.610;2023-04-25T13:04:14;12.00;1.00
10294;DHT22;5192;50.328;7.610;2023-04-25T13:06:43;12.30;1.00
10294;DHT22;5192;50.328;7.610;2023-04-25T13:09:08;12.30;1.00
10294;DHT22;5192;50.328;7.610;2023-04-25T13:11:36;12.10;1.00
10294;DHT22;5192;50.328;7.610;2023-04-25T13:14:04;11.70;1.00
10294;DHT22;5192;50.328;7.610;2023-04-25T13:16:31;11.40;1.00
10294;DHT22;5192;50.328;7.610;2023-04-25T13:18:58;11.30;1.00
10294;DHT22;5192;50.328;7.610;2023-04-25T13:21:25;11.10;1.00
10294;DHT22;5192;50.328;7.610;2023-04-25T13:23:53;10.90;1.00
10294;DHT22;5192;50.328;7.610;2023-04-25T13:26:20;10.70;1.00
10294;DHT22;5192;50.328;7.610;2023-04-25T13:28:46;10.60;1.00
10294;DHT22;5192;50.328;7.610;2023-04-25T13:31:13;10.50;1.00
10294;DHT22;5192;50.328;7.610;2023-04-25T13:33:40;10.40;1.00
10294;DHT22;5192;50.328;7.610;2023-04-25T13:36:06;10.30;1.00
10294;DHT22;5192;50.328;7.610;2023-04-25T13:38:34;10.30;1.00
10294;DHT22;5192;50.328;7.610;2023-04-25T13:41:02;10.20;1.00
10294;DHT22;5192;50.328;7.610;2023-04-25T13:43:29;10.10;1.00
10294;DHT22;5192;50.328;7.610;2023-04-25T13:45:55;10.20;1.00
10294;DHT22;5192;50.328;7.610;2023-04-25T13:48:23;10.40;1.00
10294;DHT22;5192;50.328;7.610;2023-04-25T13:50:50;10.60;1.00
10294;DHT22;5192;50.328;7.610;2023-04-25T13:53:17;10.60;1.00
10294;DHT22;5192;50.328;7.610;2023-04-25T13:55:44;10.60;1.00
10294;DHT22;5192;50.328;7.610;2023-04-25T13:58:11;10.60;1.00
10294;DHT22;5192;50.328;7.610;2023-04-25T14:00:40;10.70;1.00
10294;DHT22;5192;50.328;7.610;2023-04-25T14:03:10;10.80;1.00
10294;DHT22;5192;50.328;7.610;2023-04-25T14:05:37;10.70;1.00
10294;DHT22;5192;50.328;7.610;2023-04-25T14:08:09;10.60;1.00
10294;DHT22;5192;50.328;7.610;2023-04-25T14:10:35;10.50;1.00
10294;DHT22;5192;50.328;7.610;2023-04-25T14:13:02;10.30;1.00
10294;DHT22;5192;50.328;7.610;2023-04-25T14:15:35;10.00;1.00
10294;DHT22;5192;50.328;7.610;2023-04-25T14:18:01;10.00;1.00
10294;DHT22;5192;50.328;7.610;2023-04-25T14:20:27;9.90;1.00
10294;DHT22;5192;50.328;7.610;2023-04-25T14:22:54;9.80;1.00
10294;DHT22;5192;50.328;7.610;2023-04-25T14:25:23;9.80;1.00
10294;DHT22;5192;50.328;7.610;2023-04-25T14:27:50;9.80;1.00
10294;DHT22;5192;50.328;7.610;2023-04-25T14:30:20;9.80;1.00
10294;DHT22;5192;50.328;7.610;2023-04-25T14:32:52;9.80;1.00
10294;DHT22;5192;50.328;7.610;2023-04-25T14:35:19;9.90;1.00
10294;DHT22;5192;50.328;7.610;2023-04-25T14:37:47;10.00;1.00
10294;DHT22;5192;50.328;7.610;2023-04-25T14:40:13;10.10;1.00
10294;DHT22;5192;50.328;7.610;2023-04-25T14:42:42;9.90;1.00
10294;DHT22;5192;50.328;7.610;2023-04-25T14:45:09;10.00;1.00
10294;DHT22;5192;50.328;7.610;2023-04-25T14:47:40;9.90;1.00
10294;DHT22;5192;50.328;7.610;2023-04-25T14:50:08;9.90;1.00
10294;DHT22;5192;50.328;7.610;2023-04-25T14:52:36;10.00;1.00
10294;DHT22;5192;50.328;7.610;2023-04-25T14:55:03;9.90;1.00
10294;DHT22;5192;50.328;7.610;2023-04-25T14:57:34;10.00;1.00
10294;DHT22;5192;50.328;7.610;2023-04-25T15:00:02;10.10;1.00
10294;DHT22;5192;50.328;7.610;2023-04-25T15:02:36;10.30;1.00
10294;DHT22;5192;50.328;7.610;2023-04-25T15:05:03;10.50;1.00
10294;DHT22;5192;50.328;7.610;2023-04-25T15:07:30;10.60;1.00
10294;DHT22;5192;50.328;7.610;2023-04-25T15:09:57;10.60;1.00
10294;DHT22;5192;50.328;7.610;2023-04-25T15:12:22;10.50;1.00
10294;DHT22;5192;50.328;7.610;2023-04-25T15:14:50;10.70;1.00
10294;DHT22;5192;50.328;7.610;2023-04-25T15:17:18;10.70;1.00
10294;DHT22;5192;50.328;7.610;2023-04-25T15:19:46;10.70;1.00
10294;DHT22;5192;50.328;7.610;2023-04-25T15:22:15;10.70;1.00
10294;DHT22;5192;50.328;7.610;2023-04-25T15:24:43;10.70;1.00
10294;DHT22;5192;50.328;7.610;2023-04-25T15:27:09;10.70;1.00
10294;DHT22;5192;50.328;7.610;2023-04-25T15:29:38;10.70;1.00
10294;DHT22;5192;50.328;7.610;2023-04-25T15:32:06;10.70;1.00
10294;DHT22;5192;50.328;7.610;2023-04-25T15:34:33;10.60;1.00
10294;DHT22;5192;50.328;7.610;2023-04-25T15:37:01;10.30;1.00
10294;DHT22;5192;50.328;7.610;2023-04-25T15:39:28;10.10;1.00
10294;DHT22;5192;50.328;7.610;2023-04-25T15:41:54;10.10;1.00
10294;DHT22;5192;50.328;7.610;2023-04-25T15:44:22;9.90;1.00
10294;DHT22;5192;50.328;7.610;2023-04-25T15:46:48;9.90;1.00
10294;DHT22;5192;50.328;7.610;2023-04-25T15:49:15;9.90;1.00
10294;DHT22;5192;50.328;7.610;2023-04-25T15:51:42;10.10;1.00
10294;DHT22;5192;50.328;7.610;2023-04-25T15:54:10;10.30;1.00
10294;DHT22;5192;50.328;7.610;2023-04-25T15:56:38;10.70;1.00
10294;DHT22;5192;50.328;7.610;2023-04-25T15:59:04;10.80;1.00
10294;DHT22;5192;50.328;7.610;2023-04-25T16:01:30;11.00;1.00
10294;DHT22;5192;50.328;7.610;2023-04-25T16:03:58;11.10;1.00
10294;DHT22;5192;50.328;7.610;2023-04-25T16:06:30;11.60;1.00
10294;DHT22;5192;50.328;7.610;2023-04-25T16:08:57;12.20;1.00
10294;DHT22;5192;50.328;7.610;2023-04-25T16:11:24;12.50;1.00